createdAt,value
2018-11-28T00:00:16.825Z,0.00
2018-11-28T00:01:16.787Z,0.00
2018-11-28T00:02:16.748Z,0.00
2018-11-28T00:03:16.709Z,0.00
2018-11-28T00:04:16.674Z,0.00
2018-11-28T00:05:16.633Z,0.00
2018-11-28T00:06:16.597Z,0.00
2018-11-28T00:07:16.563Z,0.00
2018-11-28T00:08:16.520Z,0.00
2018-11-28T00:09:16.481Z,0.00
2018-11-28T00:10:16.443Z,0.00
2018-11-28T00:11:16.407Z,0.00
2018-11-28T00:12:16.372Z,0.00
2018-11-28T00:13:16.329Z,0.00
2018-11-28T00:14:16.293Z,0.00
2018-11-28T00:15:16.255Z,0.00
2018-11-28T00:16:16.216Z,0.00
2018-11-28T00:17:16.178Z,0.00
2018-11-28T00:18:16.140Z,0.00
2018-11-28T00:19:16.102Z,0.00
2018-11-28T00:20:16.067Z,0.00
2018-11-28T00:21:16.024Z,0.00
2018-11-28T00:22:15.986Z,0.00
2018-11-28T00:23:15.949Z,0.00
2018-11-28T00:24:15.911Z,0.00
2018-11-28T00:25:15.874Z,0.00
2018-11-28T00:26:15.835Z,0.00
2018-11-28T00:27:15.797Z,0.00
2018-11-28T00:28:15.758Z,0.00
2018-11-28T00:29:15.720Z,0.00
2018-11-28T00:30:15.680Z,0.00
2018-11-28T00:31:15.644Z,0.00
2018-11-28T00:32:15.604Z,0.00
2018-11-28T00:33:15.566Z,0.00
2018-11-28T00:34:15.528Z,0.00
2018-11-28T00:35:15.492Z,0.00
2018-11-28T00:36:15.452Z,0.00
2018-11-28T00:37:15.413Z,0.00
2018-11-28T00:38:15.374Z,0.00
2018-11-28T00:39:15.336Z,0.00
2018-11-28T00:40:15.298Z,0.00
2018-11-28T00:41:15.261Z,0.00
2018-11-28T00:42:15.221Z,0.00
2018-11-28T00:43:15.182Z,0.00
2018-11-28T00:44:15.148Z,0.00
2018-11-28T00:45:15.105Z,0.00
2018-11-28T00:46:15.067Z,0.00
2018-11-28T00:47:15.030Z,0.00
2018-11-28T00:48:14.993Z,0.00
2018-11-28T00:49:14.957Z,0.00
2018-11-28T00:50:14.929Z,0.00
2018-11-28T00:51:14.874Z,0.00
2018-11-28T00:52:14.837Z,0.00
2018-11-28T00:53:14.799Z,0.00
2018-11-28T00:54:14.759Z,0.00
2018-11-28T00:55:14.722Z,0.00
2018-11-28T00:56:14.682Z,0.00
2018-11-28T00:57:14.643Z,0.00
2018-11-28T00:58:14.605Z,0.00
2018-11-28T00:59:14.568Z,0.00
2018-11-28T01:00:14.530Z,0.00
2018-11-28T01:01:14.488Z,0.00
2018-11-28T01:02:14.450Z,0.00
2018-11-28T01:03:14.414Z,0.00
2018-11-28T01:04:14.375Z,0.00
2018-11-28T01:05:14.334Z,0.00
2018-11-28T01:06:14.298Z,0.00
2018-11-28T01:07:14.260Z,0.00
2018-11-28T01:08:14.219Z,0.00
2018-11-28T01:09:14.180Z,0.00
2018-11-28T01:10:14.141Z,0.00
2018-11-28T01:11:14.150Z,0.00
2018-11-28T01:12:14.065Z,0.00
2018-11-28T01:13:14.025Z,0.00
2018-11-28T01:14:13.987Z,0.00
2018-11-28T01:15:13.949Z,0.00
2018-11-28T01:16:13.910Z,0.00
2018-11-28T01:17:13.871Z,0.00
2018-11-28T01:18:13.834Z,0.00
2018-11-28T01:19:13.796Z,0.00
2018-11-28T01:20:13.756Z,0.00
2018-11-28T01:21:13.717Z,0.00
2018-11-28T01:22:13.678Z,0.00
2018-11-28T01:23:13.640Z,0.00
2018-11-28T01:24:13.600Z,0.00
2018-11-28T01:25:13.561Z,0.00
2018-11-28T01:26:13.524Z,0.00
2018-11-28T01:27:13.485Z,0.00
2018-11-28T01:28:13.445Z,0.00
2018-11-28T01:29:13.408Z,0.00
2018-11-28T01:30:13.366Z,0.00
2018-11-28T01:31:13.328Z,0.00
2018-11-28T01:32:13.290Z,0.00
2018-11-28T01:33:13.251Z,0.00
2018-11-28T01:34:13.211Z,0.00
2018-11-28T01:35:13.181Z,0.00
2018-11-28T01:36:13.134Z,0.00
2018-11-28T01:37:13.095Z,0.00
2018-11-28T01:38:13.057Z,0.00
2018-11-28T01:39:13.017Z,0.00
2018-11-28T01:40:12.982Z,0.00
2018-11-28T01:41:12.940Z,0.00
2018-11-28T01:42:12.907Z,0.00
2018-11-28T01:43:12.861Z,0.00
2018-11-28T01:44:12.824Z,0.00
2018-11-28T01:45:12.784Z,0.00
2018-11-28T01:46:12.744Z,0.00
2018-11-28T01:47:12.707Z,0.00
2018-11-28T01:48:12.671Z,0.00
2018-11-28T01:49:12.628Z,0.00
2018-11-28T01:50:12.589Z,0.00
2018-11-28T01:51:12.551Z,0.00
2018-11-28T01:52:12.518Z,0.00
2018-11-28T01:53:12.473Z,0.00
2018-11-28T01:54:12.435Z,0.00
2018-11-28T01:55:12.402Z,0.00
2018-11-28T01:56:12.356Z,0.00
2018-11-28T01:57:12.316Z,0.00
2018-11-28T01:58:12.279Z,0.00
2018-11-28T01:59:12.239Z,0.00
2018-11-28T02:00:12.203Z,0.00
2018-11-28T02:01:12.161Z,0.00
2018-11-28T02:02:12.122Z,0.00
2018-11-28T02:03:12.084Z,0.00
2018-11-28T02:04:12.045Z,0.00
2018-11-28T02:05:12.007Z,0.00
2018-11-28T02:06:11.966Z,0.00
2018-11-28T02:07:11.932Z,0.00
2018-11-28T02:08:11.888Z,0.00
2018-11-28T02:09:11.849Z,0.00
2018-11-28T02:10:11.815Z,0.00
2018-11-28T02:11:11.772Z,0.00
2018-11-28T02:12:11.735Z,0.00
2018-11-28T02:13:11.694Z,0.00
2018-11-28T02:14:11.654Z,0.00
2018-11-28T02:15:11.616Z,0.00
2018-11-28T02:16:11.582Z,0.00
2018-11-28T02:17:11.539Z,0.00
2018-11-28T02:18:11.498Z,0.00
2018-11-28T02:19:11.461Z,0.00
2018-11-28T02:20:11.459Z,0.00
2018-11-28T02:21:11.382Z,0.00
2018-11-28T02:22:11.342Z,0.00
2018-11-28T02:23:11.304Z,0.00
2018-11-28T02:24:11.266Z,0.00
2018-11-28T02:25:11.228Z,0.00
2018-11-28T02:26:11.194Z,0.00
2018-11-28T02:27:11.149Z,0.00
2018-11-28T02:28:11.110Z,0.00
2018-11-28T02:29:11.073Z,0.00
2018-11-28T02:30:11.032Z,0.00
2018-11-28T02:31:10.991Z,0.00
2018-11-28T02:32:10.965Z,0.00
2018-11-28T02:33:10.914Z,0.00
2018-11-28T02:34:10.875Z,0.00
2018-11-28T02:35:10.836Z,0.00
2018-11-28T02:36:10.797Z,0.00
2018-11-28T02:37:10.756Z,0.00
2018-11-28T02:38:10.718Z,0.00
2018-11-28T02:39:10.681Z,0.00
2018-11-28T02:40:10.640Z,0.00
2018-11-28T02:41:10.603Z,0.00
2018-11-28T02:42:10.561Z,0.00
2018-11-28T02:43:10.522Z,0.00
2018-11-28T02:44:10.483Z,0.00
2018-11-28T02:45:10.445Z,0.00
2018-11-28T02:46:10.411Z,0.00
2018-11-28T02:47:10.367Z,0.00
2018-11-28T02:48:10.329Z,0.00
2018-11-28T02:49:10.289Z,0.00
2018-11-28T02:50:10.249Z,0.00
2018-11-28T02:51:10.212Z,0.00
2018-11-28T02:52:10.170Z,0.00
2018-11-28T02:53:10.132Z,0.00
2018-11-28T02:54:10.094Z,0.00
2018-11-28T02:55:10.060Z,0.00
2018-11-28T02:56:10.016Z,0.00
2018-11-28T02:57:09.975Z,0.00
2018-11-28T02:58:09.935Z,0.00
2018-11-28T02:59:09.898Z,0.00
2018-11-28T03:00:09.857Z,0.00
2018-11-28T03:01:09.818Z,0.00
2018-11-28T03:02:09.780Z,0.00
2018-11-28T03:03:09.741Z,0.00
2018-11-28T03:04:09.702Z,0.00
2018-11-28T03:05:09.662Z,0.00
2018-11-28T03:06:09.622Z,0.00
2018-11-28T03:07:09.583Z,0.00
2018-11-28T03:08:09.545Z,0.00
2018-11-28T03:09:09.505Z,0.00
2018-11-28T03:10:09.465Z,0.00
2018-11-28T03:11:09.427Z,0.00
2018-11-28T03:12:09.387Z,0.00
2018-11-28T03:13:09.349Z,0.00
2018-11-28T03:14:09.307Z,0.00
2018-11-28T03:15:09.269Z,0.00
2018-11-28T03:16:09.240Z,0.00
2018-11-28T03:17:09.191Z,0.00
2018-11-28T03:18:09.151Z,0.00
2018-11-28T03:19:09.112Z,0.00
2018-11-28T03:20:09.078Z,0.00
2018-11-28T03:21:09.034Z,0.00
2018-11-28T03:22:08.996Z,0.00
2018-11-28T03:23:08.954Z,0.00
2018-11-28T03:24:08.916Z,0.00
2018-11-28T03:25:08.874Z,0.00
2018-11-28T03:26:08.839Z,0.00
2018-11-28T03:27:08.798Z,0.00
2018-11-28T03:28:08.762Z,0.00
2018-11-28T03:29:08.718Z,0.00
2018-11-28T03:30:08.680Z,0.00
2018-11-28T03:31:08.642Z,0.00
2018-11-28T03:32:08.602Z,0.00
2018-11-28T03:33:08.563Z,0.00
2018-11-28T03:34:08.526Z,0.00
2018-11-28T03:35:08.482Z,0.00
2018-11-28T03:36:08.444Z,0.00
2018-11-28T03:37:08.405Z,0.00
2018-11-28T03:38:08.368Z,0.00
2018-11-28T03:39:08.325Z,0.00
2018-11-28T03:40:08.287Z,0.00
2018-11-28T03:41:08.247Z,0.00
2018-11-28T03:42:08.209Z,0.00
2018-11-28T03:43:08.169Z,0.00
2018-11-28T03:44:08.130Z,0.00
2018-11-28T03:45:08.088Z,0.00
2018-11-28T03:46:08.050Z,0.00
2018-11-28T03:47:08.012Z,0.00
2018-11-28T03:48:07.972Z,0.00
2018-11-28T03:49:07.932Z,0.00
2018-11-28T03:50:07.901Z,0.00
2018-11-28T03:51:07.853Z,0.00
2018-11-28T03:52:07.815Z,0.00
2018-11-28T03:53:07.773Z,0.00
2018-11-28T03:54:07.734Z,0.00
2018-11-28T03:55:07.694Z,0.00
2018-11-28T03:56:07.656Z,0.00
2018-11-28T03:57:07.619Z,0.00
2018-11-28T03:58:07.622Z,0.00
2018-11-28T03:59:07.538Z,0.00
2018-11-28T04:00:07.500Z,0.00
2018-11-28T04:01:07.460Z,0.00
2018-11-28T04:02:07.419Z,0.00
2018-11-28T04:03:07.378Z,0.00
2018-11-28T04:04:07.340Z,0.00
2018-11-28T04:05:07.301Z,0.00
2018-11-28T04:06:07.261Z,0.00
2018-11-28T04:07:07.223Z,0.00
2018-11-28T04:08:07.183Z,0.00
2018-11-28T04:09:07.144Z,0.00
2018-11-28T04:10:07.103Z,0.00
2018-11-28T04:11:07.064Z,0.00
2018-11-28T04:12:07.025Z,0.00
2018-11-28T04:13:06.984Z,0.00
2018-11-28T04:14:06.946Z,0.00
2018-11-28T04:15:06.906Z,0.00
2018-11-28T04:16:06.869Z,0.00
2018-11-28T04:17:06.828Z,0.00
2018-11-28T04:18:06.788Z,0.00
2018-11-28T04:19:06.750Z,0.00
2018-11-28T04:20:06.709Z,0.00
2018-11-28T04:21:06.674Z,0.00
2018-11-28T04:22:06.636Z,0.00
2018-11-28T04:23:06.592Z,0.00
2018-11-28T04:24:06.554Z,0.00
2018-11-28T04:25:06.511Z,0.00
2018-11-28T04:26:06.474Z,0.00
2018-11-28T04:27:06.435Z,0.00
2018-11-28T04:28:06.394Z,0.00
2018-11-28T04:29:06.360Z,0.00
2018-11-28T04:30:06.317Z,0.00
2018-11-28T04:31:06.277Z,0.00
2018-11-28T04:32:06.239Z,0.00
2018-11-28T04:33:06.197Z,0.00
2018-11-28T04:34:06.158Z,0.00
2018-11-28T04:35:06.119Z,0.00
2018-11-28T04:36:06.082Z,0.00
2018-11-28T04:37:06.040Z,0.00
2018-11-28T04:38:06.003Z,0.00
2018-11-28T04:39:05.963Z,0.00
2018-11-28T04:40:05.923Z,0.00
2018-11-28T04:41:05.883Z,0.00
2018-11-28T04:42:05.858Z,0.00
2018-11-28T04:43:05.806Z,0.00
2018-11-28T04:44:05.767Z,0.00
2018-11-28T04:45:05.725Z,0.00
2018-11-28T04:46:05.689Z,0.00
2018-11-28T04:47:05.650Z,0.00
2018-11-28T04:48:05.610Z,0.00
2018-11-28T04:49:05.571Z,0.00
2018-11-28T04:50:05.533Z,0.00
2018-11-28T04:51:05.496Z,0.00
2018-11-28T04:52:05.464Z,0.00
2018-11-28T04:53:05.416Z,0.00
2018-11-28T04:54:05.381Z,0.00
2018-11-28T04:55:05.338Z,0.00
2018-11-28T04:56:05.299Z,0.00
2018-11-28T04:57:05.259Z,0.00
2018-11-28T04:58:05.220Z,0.00
2018-11-28T04:59:05.182Z,0.00
2018-11-28T05:00:05.142Z,0.00
2018-11-28T05:01:05.103Z,0.00
2018-11-28T05:02:05.069Z,0.00
2018-11-28T05:03:05.039Z,0.00
2018-11-28T05:04:04.989Z,0.00
2018-11-28T05:05:04.948Z,0.00
2018-11-28T05:06:04.912Z,0.00
2018-11-28T05:07:04.872Z,0.00
2018-11-28T05:08:04.833Z,0.00
2018-11-28T05:09:04.795Z,0.00
2018-11-28T05:10:04.756Z,0.00
2018-11-28T05:11:04.727Z,0.00
2018-11-28T05:12:04.679Z,0.00
2018-11-28T05:13:04.640Z,0.00
2018-11-28T05:14:04.603Z,0.00
2018-11-28T05:15:04.563Z,0.00
2018-11-28T05:16:04.525Z,0.00
2018-11-28T05:17:04.485Z,0.00
2018-11-28T05:18:04.457Z,0.00
2018-11-28T05:19:04.413Z,0.00
2018-11-28T05:20:04.373Z,0.00
2018-11-28T05:21:04.332Z,0.00
2018-11-28T05:22:04.294Z,0.00
2018-11-28T05:23:04.255Z,0.00
2018-11-28T05:24:04.218Z,0.00
2018-11-28T05:25:04.180Z,0.00
2018-11-28T05:26:04.141Z,0.00
2018-11-28T05:27:04.103Z,0.00
2018-11-28T05:28:04.065Z,0.00
2018-11-28T05:29:04.028Z,0.00
2018-11-28T05:30:03.987Z,0.00
2018-11-28T05:31:03.950Z,0.00
2018-11-28T05:32:03.912Z,0.00
2018-11-28T05:33:03.874Z,0.00
2018-11-28T05:34:03.835Z,0.00
2018-11-28T05:35:03.797Z,0.00
2018-11-28T05:36:03.761Z,0.00
2018-11-28T05:37:03.719Z,0.00
2018-11-28T05:38:03.682Z,0.00
2018-11-28T05:39:03.644Z,0.00
2018-11-28T05:40:03.606Z,0.00
2018-11-28T05:41:03.568Z,0.00
2018-11-28T05:42:03.529Z,0.00
2018-11-28T05:43:03.494Z,0.00
2018-11-28T05:44:03.455Z,0.00
2018-11-28T05:45:03.415Z,0.00
2018-11-28T05:46:03.378Z,0.00
2018-11-28T05:47:03.339Z,0.00
2018-11-28T05:48:03.301Z,0.00
2018-11-28T05:49:03.261Z,0.00
2018-11-28T05:50:03.223Z,0.00
2018-11-28T05:51:03.186Z,0.00
2018-11-28T05:52:03.148Z,0.00
2018-11-28T05:53:03.110Z,0.00
2018-11-28T05:54:03.071Z,0.00
2018-11-28T05:55:03.040Z,0.00
2018-11-28T05:56:02.996Z,0.00
2018-11-28T05:57:02.957Z,0.00
2018-11-28T05:58:02.919Z,0.00
2018-11-28T05:59:03.503Z,0.00
2018-11-28T06:00:02.842Z,0.00
2018-11-28T06:01:02.804Z,0.00
2018-11-28T06:02:02.764Z,0.00
2018-11-28T06:03:02.727Z,0.00
2018-11-28T06:04:02.688Z,0.00
2018-11-28T06:05:02.648Z,0.00
2018-11-28T06:06:02.612Z,0.00
2018-11-28T06:07:02.573Z,0.00
2018-11-28T06:08:02.535Z,0.00
2018-11-28T06:09:02.496Z,0.00
2018-11-28T06:10:02.457Z,0.00
2018-11-28T06:11:02.420Z,0.00
2018-11-28T06:12:02.389Z,0.00
2018-11-28T06:13:02.343Z,0.00
2018-11-28T06:14:02.305Z,0.00
2018-11-28T06:15:02.267Z,0.00
2018-11-28T06:16:02.229Z,4.00
2018-11-28T06:17:02.249Z,0.00
2018-11-28T06:18:02.153Z,0.00
2018-11-28T06:19:02.112Z,4.00
2018-11-28T06:20:02.073Z,4.00
2018-11-28T06:21:02.033Z,4.00
2018-11-28T06:22:01.996Z,4.00
2018-11-28T06:23:01.957Z,4.00
2018-11-28T06:24:01.917Z,4.00
2018-11-28T06:25:01.883Z,4.00
2018-11-28T06:26:01.840Z,8.00
2018-11-28T06:27:01.800Z,8.00
2018-11-28T06:28:01.762Z,8.00
2018-11-28T06:29:01.725Z,12.00
2018-11-28T06:30:01.690Z,16.00
2018-11-28T06:31:01.647Z,20.00
2018-11-28T06:32:01.610Z,20.00
2018-11-28T06:33:01.569Z,24.00
2018-11-28T06:34:01.531Z,28.00
2018-11-28T06:35:01.493Z,32.00
2018-11-28T06:36:01.454Z,36.00
2018-11-28T06:37:01.417Z,44.00
2018-11-28T06:38:01.376Z,52.00
2018-11-28T06:39:01.336Z,60.00
2018-11-28T06:40:01.299Z,68.00
2018-11-28T06:41:01.258Z,80.00
2018-11-28T06:42:01.221Z,92.00
2018-11-28T06:43:01.183Z,104.00
2018-11-28T06:44:01.144Z,116.00
2018-11-28T06:45:01.103Z,132.00
2018-11-28T06:46:01.064Z,148.00
2018-11-28T06:47:01.028Z,164.00
2018-11-28T06:48:00.988Z,188.00
2018-11-28T06:49:00.949Z,208.00
2018-11-28T06:50:00.916Z,224.00
2018-11-28T06:51:00.871Z,248.00
2018-11-28T06:52:00.834Z,276.00
2018-11-28T06:53:00.796Z,304.00
2018-11-28T06:54:00.761Z,332.00
2018-11-28T06:55:00.715Z,360.00
2018-11-28T06:56:00.678Z,396.00
2018-11-28T06:57:00.637Z,428.00
2018-11-28T06:58:00.599Z,460.00
2018-11-28T06:59:00.563Z,500.00
2018-11-28T07:00:00.522Z,540.00
2018-11-28T07:01:00.483Z,580.00
2018-11-28T07:02:00.445Z,620.00
2018-11-28T07:03:00.405Z,660.00
2018-11-28T07:04:00.367Z,708.00
2018-11-28T07:05:00.328Z,752.00
2018-11-28T07:06:00.288Z,796.00
2018-11-28T07:07:00.250Z,848.00
2018-11-28T07:08:00.210Z,896.00
2018-11-28T07:09:00.172Z,948.00
2018-11-28T07:10:00.132Z,1000.00
2018-11-28T07:11:00.096Z,1056.00
2018-11-28T07:12:00.056Z,1108.00
2018-11-28T07:13:00.017Z,1164.00
2018-11-28T07:13:59.976Z,1220.00
2018-11-28T07:14:59.939Z,1272.00
2018-11-28T07:15:59.899Z,1332.00
2018-11-28T07:16:59.860Z,1392.00
2018-11-28T07:17:59.822Z,1452.00
2018-11-28T07:18:59.783Z,1508.00
2018-11-28T07:19:59.745Z,1568.00
2018-11-28T07:20:59.703Z,1628.00
2018-11-28T07:21:59.668Z,1688.00
2018-11-28T07:22:59.630Z,1752.00
2018-11-28T07:23:59.588Z,1816.00
2018-11-28T07:24:59.548Z,1872.00
2018-11-28T07:25:59.510Z,1932.00
2018-11-28T07:26:59.473Z,1992.00
2018-11-28T07:27:59.435Z,2052.00
2018-11-28T07:28:59.396Z,2112.00
2018-11-28T07:29:59.355Z,2168.00
2018-11-28T07:30:59.318Z,2228.00
2018-11-28T07:31:59.279Z,2280.00
2018-11-28T07:32:59.242Z,2344.00
2018-11-28T07:33:59.199Z,2404.00
2018-11-28T07:34:59.163Z,2456.00
2018-11-28T07:35:59.126Z,2512.00
2018-11-28T07:36:59.083Z,2560.00
2018-11-28T07:37:59.045Z,2616.00
2018-11-28T07:38:59.008Z,2672.00
2018-11-28T07:39:58.968Z,2720.00
2018-11-28T07:40:58.927Z,2768.00
2018-11-28T07:41:58.890Z,2820.00
2018-11-28T07:42:58.851Z,2880.00
2018-11-28T07:43:58.812Z,2932.00
2018-11-28T07:44:58.773Z,2984.00
2018-11-28T07:45:58.734Z,3040.00
2018-11-28T07:46:58.696Z,3104.00
2018-11-28T07:47:58.658Z,3184.00
2018-11-28T07:48:58.619Z,3244.00
2018-11-28T07:49:58.582Z,3288.00
2018-11-28T07:50:58.542Z,3340.00
2018-11-28T07:51:58.505Z,3364.00
2018-11-28T07:52:58.464Z,3416.00
2018-11-28T07:53:58.486Z,3516.00
2018-11-28T07:54:58.388Z,3616.00
2018-11-28T07:55:58.349Z,3680.00
2018-11-28T07:56:58.312Z,3740.00
2018-11-28T07:57:58.272Z,3748.00
2018-11-28T07:58:58.235Z,3796.00
2018-11-28T07:59:58.199Z,3952.00
2018-11-28T08:00:58.158Z,4068.00
2018-11-28T08:01:58.119Z,4144.00
2018-11-28T08:02:58.088Z,4112.00
2018-11-28T08:03:58.045Z,4100.00
2018-11-28T08:04:58.005Z,4276.00
2018-11-28T08:05:57.970Z,4416.00
2018-11-28T08:06:57.931Z,4364.00
2018-11-28T08:07:57.893Z,4400.00
2018-11-28T08:08:57.853Z,4476.00
2018-11-28T08:09:57.818Z,4444.00
2018-11-28T08:10:57.780Z,4468.00
2018-11-28T08:11:57.742Z,4620.00
2018-11-28T08:12:57.704Z,4728.00
2018-11-28T08:13:57.666Z,4980.00
2018-11-28T08:14:57.629Z,5100.00
2018-11-28T08:15:57.594Z,4900.00
2018-11-28T08:16:57.555Z,4884.00
2018-11-28T08:17:57.516Z,5208.00
2018-11-28T08:18:57.480Z,5420.00
2018-11-28T08:19:57.441Z,5320.00
2018-11-28T08:20:57.403Z,5228.00
2018-11-28T08:21:57.371Z,5464.00
2018-11-28T08:22:57.330Z,5732.00
2018-11-28T08:23:57.293Z,5732.00
2018-11-28T08:24:57.258Z,5772.00
2018-11-28T08:25:57.223Z,5876.00
2018-11-28T08:26:57.183Z,5840.00
2018-11-28T08:27:57.262Z,6168.00
2018-11-28T08:28:57.109Z,6452.00
2018-11-28T08:29:57.071Z,6044.00
2018-11-28T08:30:57.034Z,5784.00
2018-11-28T08:31:57.000Z,6000.00
2018-11-28T08:32:56.964Z,6228.00
2018-11-28T08:33:56.925Z,6544.00
2018-11-28T08:34:56.890Z,6832.00
2018-11-28T08:35:56.852Z,7024.00
2018-11-28T08:36:56.815Z,6848.00
2018-11-28T08:37:56.779Z,7372.00
2018-11-28T08:38:56.747Z,7376.00
2018-11-28T08:39:56.706Z,7336.00
2018-11-28T08:40:56.668Z,7488.00
2018-11-28T08:41:56.633Z,7676.00
2018-11-28T08:42:56.598Z,7732.00
2018-11-28T08:43:56.561Z,7816.00
2018-11-28T08:44:56.525Z,8016.00
2018-11-28T08:45:56.489Z,8032.00
2018-11-28T08:46:56.454Z,8096.00
2018-11-28T08:47:56.417Z,8104.00
2018-11-28T08:48:56.382Z,8172.00
2018-11-28T08:49:56.594Z,8296.00
2018-11-28T08:50:56.315Z,8524.00
2018-11-28T08:51:56.276Z,8636.00
2018-11-28T08:52:56.238Z,8660.00
2018-11-28T08:53:56.203Z,8744.00
2018-11-28T08:54:56.168Z,8956.00
2018-11-28T08:55:56.131Z,9140.00
2018-11-28T08:56:56.097Z,9148.00
2018-11-28T08:57:56.061Z,9072.00
2018-11-28T08:58:56.080Z,9192.00
2018-11-28T08:59:55.992Z,9360.00
2018-11-28T09:00:55.957Z,9584.00
2018-11-28T09:01:55.920Z,9808.00
2018-11-28T09:02:55.886Z,10016.00
2018-11-28T09:03:55.851Z,10072.00
2018-11-28T09:04:55.817Z,10168.00
2018-11-28T09:05:55.780Z,10128.00
2018-11-28T09:06:55.745Z,10064.00
2018-11-28T09:07:55.712Z,10212.00
2018-11-28T09:08:55.674Z,10344.00
2018-11-28T09:09:55.641Z,10368.00
2018-11-28T09:10:55.607Z,9596.00
2018-11-28T09:11:55.570Z,8284.00
2018-11-28T09:12:55.533Z,7888.00
2018-11-28T09:13:55.502Z,7828.00
2018-11-28T09:14:55.465Z,7808.00
2018-11-28T09:15:55.431Z,7804.00
2018-11-28T09:16:55.396Z,7784.00
2018-11-28T09:17:55.360Z,7828.00
2018-11-28T09:18:55.326Z,7888.00
2018-11-28T09:19:55.292Z,7920.00
2018-11-28T09:20:55.254Z,7904.00
2018-11-28T09:21:55.220Z,7856.00
2018-11-28T09:22:55.186Z,7828.00
2018-11-28T09:23:55.151Z,7852.00
2018-11-28T09:24:55.114Z,7900.00
2018-11-28T09:25:55.089Z,7960.00
2018-11-28T09:26:55.045Z,7940.00
2018-11-28T09:27:55.013Z,7928.00
2018-11-28T09:28:54.976Z,7976.00
2018-11-28T09:29:54.941Z,7984.00
2018-11-28T09:30:54.907Z,8016.00
2018-11-28T09:31:54.870Z,8032.00
2018-11-28T09:32:54.844Z,8048.00
2018-11-28T09:33:54.804Z,8080.00
2018-11-28T09:34:54.767Z,8096.00
2018-11-28T09:35:54.731Z,8088.00
2018-11-28T09:36:54.697Z,8112.00
2018-11-28T09:37:54.661Z,8120.00
2018-11-28T09:38:54.626Z,8148.00
2018-11-28T09:39:54.593Z,8144.00
2018-11-28T09:40:54.557Z,8176.00
2018-11-28T09:41:54.523Z,8188.00
2018-11-28T09:42:54.489Z,8148.00
2018-11-28T09:43:54.453Z,8148.00
2018-11-28T09:44:54.420Z,8188.00
2018-11-28T09:45:54.385Z,8180.00
2018-11-28T09:46:54.349Z,8120.00
2018-11-28T09:47:54.316Z,8240.00
2018-11-28T09:48:54.280Z,8228.00
2018-11-28T09:49:54.245Z,8272.00
2018-11-28T09:50:54.210Z,8360.00
2018-11-28T09:51:54.177Z,8312.00
2018-11-28T09:52:54.141Z,8280.00
2018-11-28T09:53:54.106Z,8364.00
2018-11-28T09:54:54.071Z,8412.00
2018-11-28T09:55:54.039Z,8372.00
2018-11-28T09:56:54.003Z,8384.00
2018-11-28T09:57:53.967Z,8380.00
2018-11-28T09:58:53.934Z,8368.00
2018-11-28T09:59:53.901Z,8308.00
2018-11-28T10:00:53.864Z,8228.00
2018-11-28T10:01:53.831Z,8244.00
2018-11-28T10:02:53.797Z,8216.00
2018-11-28T10:03:53.761Z,8188.00
2018-11-28T10:04:53.727Z,8152.00
2018-11-28T10:05:53.694Z,8164.00
2018-11-28T10:06:53.658Z,8116.00
2018-11-28T10:07:53.625Z,8200.00
2018-11-28T10:08:53.592Z,8124.00
2018-11-28T10:09:53.556Z,8168.00
2018-11-28T10:10:53.522Z,8092.00
2018-11-28T10:11:53.486Z,7996.00
2018-11-28T10:12:53.452Z,8012.00
2018-11-28T10:13:53.417Z,8164.00
2018-11-28T10:14:53.385Z,8160.00
2018-11-28T10:15:53.349Z,8004.00
2018-11-28T10:16:53.775Z,7920.00
2018-11-28T10:17:53.286Z,7968.00
2018-11-28T10:18:53.246Z,7984.00
2018-11-28T10:19:53.211Z,8040.00
2018-11-28T10:20:53.176Z,8092.00
2018-11-28T10:21:53.143Z,7976.00
2018-11-28T10:22:53.109Z,7964.00
2018-11-28T10:23:53.075Z,7956.00
2018-11-28T10:24:53.040Z,7924.00
2018-11-28T10:25:53.004Z,7788.00
2018-11-28T10:26:52.970Z,7952.00
2018-11-28T10:27:52.937Z,7932.00
2018-11-28T10:28:52.912Z,7996.00
2018-11-28T10:29:52.866Z,8048.00
2018-11-28T10:30:52.833Z,7912.00
2018-11-28T10:31:52.798Z,7880.00
2018-11-28T10:32:52.764Z,7964.00
2018-11-28T10:33:52.728Z,8012.00
2018-11-28T10:34:52.691Z,7880.00
2018-11-28T10:35:52.661Z,7924.00
2018-11-28T10:36:52.624Z,7980.00
2018-11-28T10:37:52.590Z,7976.00
2018-11-28T10:38:52.554Z,7884.00
2018-11-28T10:39:52.520Z,7904.00
2018-11-28T10:40:52.485Z,7940.00
2018-11-28T10:41:52.450Z,7888.00
2018-11-28T10:42:52.417Z,7964.00
2018-11-28T10:43:52.382Z,7912.00
2018-11-28T10:44:52.346Z,7872.00
2018-11-28T10:45:52.314Z,7848.00
2018-11-28T10:46:52.280Z,7940.00
2018-11-28T10:47:52.243Z,7932.00
2018-11-28T10:48:52.209Z,7856.00
2018-11-28T10:49:52.175Z,7816.00
2018-11-28T10:50:52.140Z,7832.00
2018-11-28T10:51:52.106Z,7832.00
2018-11-28T10:52:52.075Z,7836.00
2018-11-28T10:53:52.036Z,7912.00
2018-11-28T10:54:52.002Z,7980.00
2018-11-28T10:55:51.966Z,7980.00
2018-11-28T10:56:51.932Z,7992.00
2018-11-28T10:57:51.900Z,8060.00
2018-11-28T10:58:51.864Z,8116.00
2018-11-28T10:59:51.829Z,8220.00
2018-11-28T11:00:51.794Z,8200.00
2018-11-28T11:01:51.770Z,8204.00
2018-11-28T11:02:51.724Z,8248.00
2018-11-28T11:03:51.690Z,8248.00
2018-11-28T11:04:51.655Z,8268.00
2018-11-28T11:05:51.620Z,8332.00
2018-11-28T11:06:51.587Z,8380.00
2018-11-28T11:07:51.551Z,8464.00
2018-11-28T11:08:51.515Z,8336.00
2018-11-28T11:09:51.480Z,8456.00
2018-11-28T11:10:51.448Z,8448.00
2018-11-28T11:11:51.410Z,8560.00
2018-11-28T11:12:51.377Z,8848.00
2018-11-28T11:13:51.341Z,9484.00
2018-11-28T11:14:51.309Z,10536.00
2018-11-28T11:15:51.273Z,11344.00
2018-11-28T11:16:51.236Z,11928.00
2018-11-28T11:17:51.201Z,12556.00
2018-11-28T11:18:51.166Z,12888.00
2018-11-28T11:19:51.130Z,13448.00
2018-11-28T11:20:51.095Z,13736.00
2018-11-28T11:21:51.058Z,13604.00
2018-11-28T11:22:51.024Z,13340.00
2018-11-28T11:23:50.990Z,12868.00
2018-11-28T11:24:50.953Z,12704.00
2018-11-28T11:25:50.918Z,11604.00
2018-11-28T11:26:50.883Z,11976.00
2018-11-28T11:27:50.847Z,11968.00
2018-11-28T11:28:50.812Z,11920.00
2018-11-28T11:29:50.778Z,11788.00
2018-11-28T11:30:50.743Z,11556.00
2018-11-28T11:31:50.707Z,11444.00
2018-11-28T11:32:50.671Z,11228.00
2018-11-28T11:33:50.637Z,10412.00
2018-11-28T11:34:50.600Z,10004.00
2018-11-28T11:35:50.567Z,9632.00
2018-11-28T11:36:50.529Z,9320.00
2018-11-28T11:37:50.495Z,9200.00
2018-11-28T11:38:50.460Z,9156.00
2018-11-28T11:39:50.425Z,8772.00
2018-11-28T11:40:50.389Z,8968.00
2018-11-28T11:41:50.359Z,9084.00
2018-11-28T11:42:50.318Z,8712.00
2018-11-28T11:43:50.284Z,8428.00
2018-11-28T11:44:50.247Z,8644.00
2018-11-28T11:45:50.217Z,8652.00
2018-11-28T11:46:50.178Z,8660.00
2018-11-28T11:47:50.149Z,8800.00
2018-11-28T11:48:50.105Z,9004.00
2018-11-28T11:49:50.078Z,9312.00
2018-11-28T11:50:50.036Z,9392.00
2018-11-28T11:51:50.002Z,9236.00
2018-11-28T11:52:49.964Z,9240.00
2018-11-28T11:53:49.929Z,9440.00
2018-11-28T11:54:49.894Z,9644.00
2018-11-28T11:55:49.858Z,9784.00
2018-11-28T11:56:49.849Z,10204.00
2018-11-28T11:57:49.792Z,10608.00
2018-11-28T11:58:49.753Z,10888.00
2018-11-28T11:59:49.717Z,11144.00
2018-11-28T12:00:49.680Z,11264.00
2018-11-28T12:01:54.713Z,11328.00
2018-11-28T12:02:49.613Z,11212.00
2018-11-28T12:03:49.578Z,11340.00
2018-11-28T12:04:49.539Z,12180.00
2018-11-28T12:05:49.507Z,13512.00
2018-11-28T12:06:49.468Z,12928.00
2018-11-28T12:07:49.433Z,13944.00
2018-11-28T12:08:49.398Z,13588.00
2018-11-28T12:09:49.366Z,12788.00
2018-11-28T12:10:49.327Z,12236.00
2018-11-28T12:11:49.293Z,12288.00
2018-11-28T12:12:51.847Z,12396.00
2018-11-28T12:13:49.221Z,11640.00
2018-11-28T12:14:49.185Z,11056.00
2018-11-28T12:15:49.151Z,10932.00
2018-11-28T12:16:49.118Z,11028.00
2018-11-28T12:17:49.081Z,10340.00
2018-11-28T12:18:49.045Z,10300.00
2018-11-28T12:19:49.009Z,10188.00
2018-11-28T12:20:48.978Z,9784.00
2018-11-28T12:21:48.939Z,10124.00
2018-11-28T12:22:48.907Z,9792.00
2018-11-28T12:23:48.898Z,9196.00
2018-11-28T12:24:48.833Z,9140.00
2018-11-28T12:25:48.798Z,8736.00
2018-11-28T12:26:48.763Z,8740.00
2018-11-28T12:27:48.729Z,8668.00
2018-11-28T12:28:48.690Z,8876.00
2018-11-28T12:29:48.655Z,8564.00
2018-11-28T12:30:48.620Z,8428.00
2018-11-28T12:31:48.585Z,8168.00
2018-11-28T12:32:48.549Z,8084.00
2018-11-28T12:33:48.516Z,7796.00
2018-11-28T12:34:50.467Z,7764.00
2018-11-28T12:35:48.452Z,7508.00
2018-11-28T12:36:48.406Z,7400.00
2018-11-28T12:37:48.373Z,7624.00
2018-11-28T12:38:48.335Z,7152.00
2018-11-28T12:39:48.299Z,7328.00
2018-11-28T12:40:48.264Z,7336.00